首页
METAR-TAF:

METAR-TAF

机场 :

丹佛國際機場

丹佛, 科羅拉多州, 美国

纬度: 39-49-58N, 经度: 104-39-27W, 海拔: 1655米

当前天气观测

该预报发布于37分钟前的14:53 UTC
风速3节,风向
温度 19°C
湿度 68%
气压 1024 hPa
能見度: 16.1公里
少量云层高于10000英尺
少量云层高于22000英尺

METAR: KDEN 161453Z 01003KT 10SM FEW100 FEW220 19/13 A3023 RMK AO2 SLP162 T01940133 51018

时间: 09:30 (15:30 UTC)

预报

该预报发布于1小时和8分钟前的14:22 UTC
预报有效从16日的 14点(UTC)到 17日的 18点(UTC)
风速5节,风向
能見度: 10公里
少量云层高于20000英尺
从 16日的 1600点(UTC)
风速5节,风向北转东北
能見度: 10公里
散云层高于20000英尺
从 16日的 1800点(UTC)
风速5节,风向
能見度: 10公里
少量云层高于9000英尺
从 16日的 2200点(UTC)
风速11节,风向
能見度: 10公里
散云层高于9000英尺
多云层高于15000英尺
从 17日的 0400点(UTC)
风速6节,风向南转南东
能見度: 10公里
少量云层高于9000英尺
多云层高于15000英尺

TAF: KDEN 161422Z 1614/1718 35005KT P6SM FEW200 FM161600 03005KT P6SM SCT200 FM161800 08005KT P6SM FEW090 FM162200 10011KT P6SM SCT090 BKN150 FM170400 16006KT P6SM FEW090 BKN150

超过4000个机场的气象观测和天气预报(METAR&TAF报告)。

可查询的气象台以黄色和红色小点在地图上表示。

将鼠标移到小点上方,可查看气象台名称。

然后点击查看天气观测和预报。

如需切换地图:点击带黑十字的绿色按钮放大地图;点击带横线的绿色按钮缩小地图;或者点击绿色箭头查看邻近地区的地图。


METAR-TAF: